createdAt,value
2023-03-30T00:00:46.396Z,99009.56
2023-03-30T00:03:12.955Z,98997.97
2023-03-30T00:05:39.973Z,99003.25
2023-03-30T00:08:06.379Z,99011.47
2023-03-30T00:10:32.711Z,99011.19
2023-03-30T00:12:59.029Z,99009.66
2023-03-30T00:15:25.835Z,99007.75
2023-03-30T00:17:54.882Z,98995.50
2023-03-30T00:20:22.151Z,98997.00
2023-03-30T00:22:48.528Z,98992.09
2023-03-30T00:25:17.235Z,99002.25
2023-03-30T00:27:44.014Z,99010.34
2023-03-30T00:30:14.417Z,99003.22
2023-03-30T00:32:42.679Z,98995.03
2023-03-30T00:35:10.604Z,98990.16
2023-03-30T00:37:37.319Z,98981.84
2023-03-30T00:40:09.931Z,98991.72
2023-03-30T00:42:37.352Z,98986.03
2023-03-30T00:45:19.485Z,98984.19
2023-03-30T00:48:02.995Z,98964.84
2023-03-30T00:50:44.539Z,98977.34
2023-03-30T00:53:24.483Z,98974.13
2023-03-30T00:55:53.570Z,98962.25
2023-03-30T00:58:22.378Z,98952.53
2023-03-30T01:00:49.327Z,98950.19
2023-03-30T01:03:27.617Z,98967.22
2023-03-30T01:05:56.837Z,98966.56
2023-03-30T01:08:27.099Z,98952.78
2023-03-30T01:10:53.744Z,98955.03
2023-03-30T01:13:20.657Z,98951.97
2023-03-30T01:16:01.176Z,98943.59
2023-03-30T01:18:37.318Z,98958.63
2023-03-30T01:21:48.821Z,98945.81
2023-03-30T01:24:27.612Z,98947.25
2023-03-30T01:27:02.140Z,98957.56
2023-03-30T01:30:01.407Z,98966.47
2023-03-30T01:32:46.600Z,98968.94
2023-03-30T01:35:46.046Z,98978.38
2023-03-30T01:38:18.474Z,98980.22
2023-03-30T01:41:11.579Z,98975.38
2023-03-30T01:43:50.949Z,98986.22
2023-03-30T01:46:25.101Z,98991.78
2023-03-30T01:49:12.281Z,98989.00
2023-03-30T01:51:51.024Z,98976.22
2023-03-30T01:54:24.135Z,98968.72
2023-03-30T01:57:02.419Z,98970.91
2023-03-30T01:59:36.523Z,98965.47
2023-03-30T02:02:07.048Z,98960.91
2023-03-30T02:04:38.686Z,98986.94
2023-03-30T02:07:10.431Z,98993.81
2023-03-30T02:09:39.841Z,99013.34
2023-03-30T02:12:09.149Z,99006.94
2023-03-30T02:14:39.269Z,99012.91
2023-03-30T02:17:11.861Z,99013.16
2023-03-30T02:19:38.279Z,99014.13
2023-03-30T02:22:06.212Z,99001.84
2023-03-30T02:24:33.517Z,99000.00
2023-03-30T02:27:04.311Z,98985.50
2023-03-30T02:29:32.002Z,98952.13
2023-03-30T02:32:00.615Z,98941.22
2023-03-30T02:34:28.874Z,98930.84
2023-03-30T02:37:26.545Z,98926.91
2023-03-30T02:39:59.017Z,98930.78
2023-03-30T02:42:39.274Z,98947.22
2023-03-30T02:45:20.738Z,98937.28
2023-03-30T02:47:59.581Z,98949.88
2023-03-30T02:50:48.364Z,98953.50
2023-03-30T02:54:13.214Z,98971.38
2023-03-30T02:57:22.634Z,99000.09
2023-03-30T03:00:01.976Z,99013.66
2023-03-30T03:02:34.331Z,99011.44
2023-03-30T03:05:16.480Z,99042.78
2023-03-30T03:07:53.496Z,99034.72
2023-03-30T03:10:19.883Z,99040.38
2023-03-30T03:12:46.739Z,99016.06
2023-03-30T03:15:13.860Z,99010.75
2023-03-30T03:17:52.639Z,98980.59
2023-03-30T03:20:19.872Z,98909.44
2023-03-30T03:22:46.325Z,98873.91
2023-03-30T03:25:12.767Z,98843.34
2023-03-30T03:27:52.395Z,98824.06
2023-03-30T03:30:23.683Z,98807.03
2023-03-30T03:33:00.719Z,98796.22
2023-03-30T03:35:29.855Z,98795.56
2023-03-30T03:37:56.172Z,98797.03
2023-03-30T03:40:22.933Z,98802.34
2023-03-30T03:42:50.609Z,98798.59
2023-03-30T03:45:17.217Z,98812.69
2023-03-30T03:47:55.828Z,98821.09
2023-03-30T03:50:33.628Z,98820.13
2023-03-30T03:53:00.233Z,98838.28
2023-03-30T03:55:28.443Z,98831.00
2023-03-30T03:57:54.770Z,98840.69
2023-03-30T04:00:22.611Z,98841.69
2023-03-30T04:02:52.239Z,98840.03
2023-03-30T04:05:19.075Z,98843.66
2023-03-30T04:07:48.264Z,98843.16
2023-03-30T04:10:15.379Z,98833.63
2023-03-30T04:12:56.678Z,98822.56
2023-03-30T04:15:43.001Z,98817.56
2023-03-30T04:18:33.275Z,98815.34
2023-03-30T04:21:25.116Z,98829.44
2023-03-30T04:24:12.108Z,98817.97
2023-03-30T04:26:57.568Z,98818.22
2023-03-30T04:29:42.058Z,98795.56
2023-03-30T04:32:54.634Z,98779.72
2023-03-30T04:35:41.349Z,98770.53
2023-03-30T04:38:27.957Z,98740.78
2023-03-30T04:41:06.553Z,98726.69
2023-03-30T04:43:45.736Z,98727.38
2023-03-30T04:46:23.711Z,98738.44
2023-03-30T04:49:19.792Z,98736.59
2023-03-30T04:52:06.516Z,98747.88
2023-03-30T04:54:55.854Z,98753.34
2023-03-30T04:57:40.895Z,98764.16
2023-03-30T05:00:27.507Z,98770.69
2023-03-30T05:03:23.013Z,98771.38
2023-03-30T05:05:57.865Z,98761.59
2023-03-30T05:08:46.527Z,98759.25
2023-03-30T05:11:22.987Z,98768.25
2023-03-30T05:14:00.253Z,98771.03
2023-03-30T05:16:39.055Z,98757.13
2023-03-30T05:19:37.742Z,98757.56
2023-03-30T05:22:21.000Z,98770.81
2023-03-30T05:24:58.363Z,98783.09
2023-03-30T05:27:40.279Z,98791.91
2023-03-30T05:30:46.578Z,98784.50
2023-03-30T05:33:38.857Z,98771.44
2023-03-30T05:36:18.381Z,98756.81
2023-03-30T05:39:04.880Z,98754.31
2023-03-30T05:41:48.930Z,98765.31
2023-03-30T05:44:44.756Z,98758.34
2023-03-30T05:47:29.648Z,98760.00
2023-03-30T05:50:09.144Z,98789.25
2023-03-30T05:52:46.772Z,98806.53
2023-03-30T05:55:23.621Z,98822.28
2023-03-30T05:58:16.789Z,98824.09
2023-03-30T06:00:52.439Z,98812.84
2023-03-30T06:03:29.571Z,98817.25
2023-03-30T06:05:56.446Z,98817.06
2023-03-30T06:08:23.105Z,98809.13
2023-03-30T06:10:57.255Z,98819.59
2023-03-30T06:13:27.163Z,98803.81
2023-03-30T06:15:57.376Z,98824.72
2023-03-30T06:18:26.339Z,98833.84
2023-03-30T06:21:07.154Z,98837.47
2023-03-30T06:23:47.145Z,98840.13
2023-03-30T06:26:17.874Z,98837.09
2023-03-30T06:28:45.235Z,98830.41
2023-03-30T06:31:12.334Z,98813.81
2023-03-30T06:33:41.923Z,98798.38
2023-03-30T06:36:12.224Z,98791.41
2023-03-30T06:38:41.042Z,98799.19
2023-03-30T06:41:09.888Z,98787.38
2023-03-30T06:43:39.493Z,98797.56
2023-03-30T06:46:16.201Z,98808.81
2023-03-30T06:48:48.325Z,98810.41
2023-03-30T06:51:40.495Z,98845.94
2023-03-30T06:54:07.849Z,98859.69
2023-03-30T06:56:36.168Z,98850.38
2023-03-30T06:59:09.281Z,98850.38
2023-03-30T07:01:55.609Z,98844.06
2023-03-30T07:04:35.576Z,98866.19
2023-03-30T07:07:19.717Z,98872.31
2023-03-30T07:09:46.506Z,98851.09
2023-03-30T07:12:12.924Z,98836.53
2023-03-30T07:14:39.600Z,98829.41
2023-03-30T07:17:07.629Z,98843.34
2023-03-30T07:19:34.160Z,98844.69
2023-03-30T07:22:00.895Z,98841.41
2023-03-30T07:24:27.732Z,98835.66
2023-03-30T07:26:54.179Z,98832.16
2023-03-30T07:29:20.711Z,98821.84
2023-03-30T07:31:51.549Z,98829.69
2023-03-30T07:34:19.593Z,98814.28
2023-03-30T07:36:52.450Z,98812.47
2023-03-30T07:39:19.315Z,98816.44
2023-03-30T07:41:48.049Z,98796.06
2023-03-30T07:44:14.684Z,98815.91
2023-03-30T07:46:41.291Z,98819.72
2023-03-30T07:49:12.830Z,98839.13
2023-03-30T07:51:39.536Z,98844.59
2023-03-30T07:54:13.142Z,98849.25
2023-03-30T07:56:57.180Z,98843.94
2023-03-30T07:59:23.865Z,98849.94
2023-03-30T08:01:54.442Z,98854.94
2023-03-30T08:04:37.526Z,98847.59
2023-03-30T08:07:04.526Z,98860.09
2023-03-30T08:09:31.294Z,98848.34
2023-03-30T08:11:57.744Z,98846.03
2023-03-30T08:14:27.159Z,98846.03
2023-03-30T08:16:54.164Z,98845.25
2023-03-30T08:19:23.373Z,98862.09
2023-03-30T08:21:49.755Z,98858.47
2023-03-30T08:24:16.097Z,98851.59
2023-03-30T08:26:43.370Z,98851.47
2023-03-30T08:29:10.609Z,98840.53
2023-03-30T08:31:37.457Z,98840.19
2023-03-30T08:34:04.468Z,98849.50
2023-03-30T08:36:31.500Z,98862.66
2023-03-30T08:38:57.974Z,98865.13
2023-03-30T08:41:24.224Z,98869.91
2023-03-30T08:44:09.449Z,98865.44
2023-03-30T08:46:35.914Z,98865.09
2023-03-30T08:49:08.067Z,98862.28
2023-03-30T08:51:35.847Z,98872.06
2023-03-30T08:54:07.139Z,98868.22
2023-03-30T08:56:44.430Z,98876.38
2023-03-30T08:59:38.527Z,98876.19
2023-03-30T09:02:18.932Z,98863.59
2023-03-30T09:04:57.132Z,98863.75
2023-03-30T09:07:27.263Z,98858.94
2023-03-30T09:09:57.152Z,98847.31
2023-03-30T09:12:46.099Z,98861.94
2023-03-30T09:15:18.130Z,98861.28
2023-03-30T09:17:55.784Z,98861.63
2023-03-30T09:20:26.026Z,98852.84
2023-03-30T09:22:55.819Z,98852.81
2023-03-30T09:25:34.379Z,98871.25
2023-03-30T09:28:12.191Z,98869.94
2023-03-30T09:30:46.947Z,98869.63
2023-03-30T09:33:41.840Z,98868.31
2023-03-30T09:36:14.177Z,98873.25
2023-03-30T09:38:41.913Z,98873.78
2023-03-30T09:41:23.468Z,98874.91
2023-03-30T09:43:51.430Z,98861.31
2023-03-30T09:46:18.129Z,98862.78
2023-03-30T09:48:50.404Z,98878.75
2023-03-30T09:51:21.587Z,98878.19
2023-03-30T09:53:50.056Z,98872.53
2023-03-30T09:56:28.629Z,98882.84
2023-03-30T09:58:56.027Z,98875.41
2023-03-30T10:01:34.305Z,98877.03
2023-03-30T10:04:12.230Z,98882.94
2023-03-30T10:06:46.915Z,98878.59
2023-03-30T10:09:14.068Z,98886.38
2023-03-30T10:11:45.617Z,98882.59
2023-03-30T10:14:31.480Z,98879.63
2023-03-30T10:16:59.267Z,98884.72
2023-03-30T10:19:26.739Z,98886.13
2023-03-30T10:21:55.550Z,98881.69
2023-03-30T10:24:24.829Z,98881.41
2023-03-30T10:27:11.950Z,98868.09
2023-03-30T10:29:38.416Z,98876.28
2023-03-30T10:32:17.093Z,98868.94
2023-03-30T10:35:05.225Z,98871.31
2023-03-30T10:37:38.344Z,98870.91
2023-03-30T10:40:32.412Z,98863.16
2023-03-30T10:43:00.625Z,98858.59
2023-03-30T10:45:36.149Z,98835.56
2023-03-30T10:48:36.607Z,98854.59
2023-03-30T10:51:21.647Z,98852.84
2023-03-30T10:54:06.862Z,98854.53
2023-03-30T10:56:41.132Z,98842.03
2023-03-30T10:59:19.997Z,98841.59
2023-03-30T11:01:54.988Z,98838.31
2023-03-30T11:04:31.660Z,98832.28
2023-03-30T11:07:00.956Z,98832.56
2023-03-30T11:09:37.792Z,98829.38
2023-03-30T11:12:12.345Z,98821.63
2023-03-30T11:14:48.876Z,98831.19
2023-03-30T11:17:23.455Z,98824.34
2023-03-30T11:19:55.540Z,98830.81
2023-03-30T11:22:38.238Z,98833.41
2023-03-30T11:25:19.539Z,98837.81
2023-03-30T11:28:03.094Z,98858.59
2023-03-30T11:30:33.782Z,98868.84
2023-03-30T11:33:19.064Z,98868.97
2023-03-30T11:35:48.183Z,98871.88
2023-03-30T11:38:50.363Z,98874.97
2023-03-30T11:41:31.767Z,98872.47
2023-03-30T11:43:58.103Z,98874.53
2023-03-30T11:46:46.181Z,98896.44
2023-03-30T11:49:24.455Z,98920.38
2023-03-30T11:52:13.319Z,98935.13
2023-03-30T11:55:06.958Z,98959.84
2023-03-30T11:57:40.154Z,98956.81
2023-03-30T12:00:30.972Z,98964.34
2023-03-30T12:03:22.472Z,98961.72
2023-03-30T12:06:00.013Z,98968.72
2023-03-30T12:08:45.184Z,98952.22
2023-03-30T12:11:33.148Z,98976.47
2023-03-30T12:14:00.744Z,98976.19
2023-03-30T12:16:44.983Z,98961.47
2023-03-30T12:19:27.890Z,98964.47
2023-03-30T12:22:04.140Z,98951.63
2023-03-30T12:24:41.953Z,98935.59
2023-03-30T12:27:11.596Z,98930.22
2023-03-30T12:32:28.800Z,98940.75
2023-03-30T12:34:57.788Z,98948.84
2023-03-30T12:37:33.291Z,98948.91
2023-03-30T12:40:06.623Z,98964.88
2023-03-30T12:42:35.240Z,98984.59
2023-03-30T12:45:12.578Z,98976.22
2023-03-30T12:47:57.853Z,98975.91
2023-03-30T12:50:45.320Z,98965.38
2023-03-30T12:53:46.372Z,98961.50
2023-03-30T12:56:28.864Z,98964.44
2023-03-30T12:59:01.049Z,98980.84
2023-03-30T13:01:52.245Z,98996.69
2023-03-30T13:04:25.349Z,98975.38
2023-03-30T13:07:01.917Z,98977.09
2023-03-30T13:09:32.132Z,98959.03
2023-03-30T13:11:58.886Z,98942.75
2023-03-30T13:14:34.058Z,98934.66
2023-03-30T13:17:00.673Z,98932.34
2023-03-30T13:19:32.977Z,98921.25
2023-03-30T13:22:11.424Z,98928.28
2023-03-30T13:24:57.905Z,98923.63
2023-03-30T13:27:29.577Z,98931.59
2023-03-30T13:30:13.824Z,98929.59
2023-03-30T13:32:56.286Z,98926.84
2023-03-30T13:36:01.366Z,98922.91
2023-03-30T13:38:40.240Z,98942.22
2023-03-30T13:41:28.072Z,98956.31
2023-03-30T13:43:54.320Z,98959.19
2023-03-30T13:46:33.197Z,98958.72
2023-03-30T13:49:21.668Z,98957.59
2023-03-30T13:51:48.969Z,98946.38
2023-03-30T13:54:25.407Z,98947.53
2023-03-30T13:57:03.846Z,98946.06
2023-03-30T13:59:33.161Z,98942.84
2023-03-30T14:02:01.358Z,98953.97
2023-03-30T14:04:34.406Z,98952.69
2023-03-30T14:07:13.853Z,98949.13
2023-03-30T14:09:40.481Z,98950.03
2023-03-30T14:12:07.679Z,98947.38
2023-03-30T14:14:46.289Z,98943.03
2023-03-30T14:17:21.680Z,98932.72
2023-03-30T14:20:06.376Z,98937.28
2023-03-30T14:22:39.765Z,98942.50
2023-03-30T14:25:22.937Z,98947.66
2023-03-30T14:27:49.319Z,98937.81
2023-03-30T14:30:29.045Z,98939.97
2023-03-30T14:33:06.959Z,98923.03
2023-03-30T14:35:34.433Z,98921.34
2023-03-30T14:38:13.781Z,98932.81
2023-03-30T14:40:43.755Z,98913.25
2023-03-30T14:43:15.940Z,98921.69
2023-03-30T14:45:43.029Z,98917.75
2023-03-30T14:48:32.058Z,98909.75
2023-03-30T14:51:00.852Z,98926.53
2023-03-30T14:53:29.165Z,98924.72
2023-03-30T14:56:00.126Z,98916.56
2023-03-30T14:58:29.795Z,98922.06
2023-03-30T15:00:59.624Z,98937.38
2023-03-30T15:03:34.558Z,98918.44
2023-03-30T15:06:06.699Z,98925.41
2023-03-30T15:08:36.829Z,98923.44
2023-03-30T15:11:14.613Z,98918.09
2023-03-30T15:13:48.495Z,98922.44
2023-03-30T15:16:20.762Z,98916.63
2023-03-30T15:18:47.701Z,98921.94
2023-03-30T15:21:14.764Z,98911.97
2023-03-30T15:23:44.638Z,98908.81
2023-03-30T15:26:12.357Z,98909.97
2023-03-30T15:28:51.023Z,98906.47
2023-03-30T15:31:18.970Z,98899.84
2023-03-30T15:33:57.908Z,98913.59
2023-03-30T15:36:35.218Z,98918.44
2023-03-30T15:39:01.676Z,98925.09
2023-03-30T15:41:44.595Z,98918.78
2023-03-30T15:44:16.475Z,98912.78
2023-03-30T15:46:43.675Z,98917.13
2023-03-30T15:49:14.571Z,98904.31
2023-03-30T15:51:47.352Z,98910.44
2023-03-30T15:54:16.819Z,98914.13
2023-03-30T15:57:12.898Z,98909.28
2023-03-30T15:59:45.151Z,98907.13
2023-03-30T16:02:21.198Z,98908.97
2023-03-30T16:04:51.405Z,98904.31
2023-03-30T16:07:20.642Z,98910.78
2023-03-30T16:09:47.684Z,98911.16
2023-03-30T16:12:17.492Z,98924.47
2023-03-30T16:14:44.043Z,98919.63
2023-03-30T16:17:12.951Z,98914.47
2023-03-30T16:19:41.026Z,98899.16
2023-03-30T16:22:08.551Z,98903.16
2023-03-30T16:24:35.984Z,98921.13
2023-03-30T16:27:03.787Z,98912.84
2023-03-30T16:29:31.249Z,98914.50
2023-03-30T16:31:58.669Z,98917.16
2023-03-30T16:34:25.868Z,98912.84
2023-03-30T16:36:52.756Z,98920.66
2023-03-30T16:39:29.778Z,98922.00
2023-03-30T16:41:56.856Z,98924.97
2023-03-30T16:44:24.967Z,98925.81
2023-03-30T16:46:52.402Z,98934.28
2023-03-30T16:49:21.998Z,98936.47
2023-03-30T16:51:48.700Z,98930.47
2023-03-30T16:54:29.563Z,98935.97
2023-03-30T16:56:57.512Z,98938.59
2023-03-30T16:59:25.925Z,98959.75
2023-03-30T17:01:52.599Z,98952.91
2023-03-30T17:04:19.423Z,98956.56
2023-03-30T17:06:45.795Z,98951.75
2023-03-30T17:09:15.238Z,98952.25
2023-03-30T17:11:41.536Z,98945.44
2023-03-30T17:14:07.850Z,98950.22
2023-03-30T17:16:34.855Z,98952.72
2023-03-30T17:19:01.261Z,98961.03
2023-03-30T17:21:27.633Z,98957.19
2023-03-30T17:23:53.960Z,98971.00
2023-03-30T17:26:20.927Z,98970.66
2023-03-30T17:28:47.688Z,98966.63
2023-03-30T17:31:19.948Z,98966.13
2023-03-30T17:33:47.699Z,98966.97
2023-03-30T17:36:22.785Z,98965.31
2023-03-30T17:38:50.469Z,98977.25
2023-03-30T17:41:19.228Z,98980.91
2023-03-30T17:43:47.706Z,98987.19
2023-03-30T17:46:16.784Z,98969.59
2023-03-30T17:48:43.336Z,98963.63
2023-03-30T17:51:09.676Z,98968.88
2023-03-30T17:53:36.869Z,98974.38
2023-03-30T17:56:03.222Z,98980.38
2023-03-30T17:58:33.874Z,98978.53
2023-03-30T18:01:02.304Z,98982.31
2023-03-30T18:03:29.409Z,98981.84
2023-03-30T18:05:57.607Z,98992.78
2023-03-30T18:08:25.129Z,98993.50
2023-03-30T18:10:53.639Z,98992.13
2023-03-30T18:13:21.432Z,98996.31
2023-03-30T18:15:50.083Z,99003.09
2023-03-30T18:18:22.562Z,99006.19
2023-03-30T18:20:54.097Z,99001.75
2023-03-30T18:23:20.816Z,99007.69
2023-03-30T18:25:47.932Z,99001.34
2023-03-30T18:28:22.979Z,99010.72
2023-03-30T18:30:50.945Z,99011.31
2023-03-30T18:33:17.401Z,98992.81
2023-03-30T18:35:46.382Z,99001.97
2023-03-30T18:38:15.241Z,98998.63
2023-03-30T18:40:45.294Z,99010.66
2023-03-30T18:43:12.749Z,99008.53
2023-03-30T18:45:41.522Z,99017.84
2023-03-30T18:48:11.286Z,99011.34
2023-03-30T18:50:40.125Z,99007.06
2023-03-30T18:53:15.363Z,99014.13
2023-03-30T18:55:44.923Z,99010.28
2023-03-30T18:58:14.488Z,99016.44
2023-03-30T19:00:40.826Z,99011.44
2023-03-30T19:03:07.356Z,99017.41
2023-03-30T19:05:34.916Z,99005.19
2023-03-30T19:08:01.908Z,98998.38
2023-03-30T19:10:30.980Z,99019.38
2023-03-30T19:12:58.019Z,99022.03
2023-03-30T19:15:26.218Z,99019.50
2023-03-30T19:17:53.165Z,99014.34
2023-03-30T19:20:22.507Z,99018.78
2023-03-30T19:22:49.642Z,99017.28
2023-03-30T19:25:17.839Z,99010.84
2023-03-30T19:27:55.388Z,99005.16
2023-03-30T19:30:28.369Z,99001.50
2023-03-30T19:32:58.153Z,99007.38
2023-03-30T19:35:25.584Z,99013.50
2023-03-30T19:37:52.766Z,99019.94
2023-03-30T19:40:20.355Z,99015.09
2023-03-30T19:42:47.731Z,99016.97
2023-03-30T19:45:16.512Z,99012.06
2023-03-30T19:47:43.572Z,99014.09
2023-03-30T19:50:14.927Z,99019.41
2023-03-30T19:52:41.807Z,99008.56
2023-03-30T19:55:09.357Z,99003.81
2023-03-30T19:57:37.107Z,99004.09
2023-03-30T20:00:12.107Z,99003.66
2023-03-30T20:02:39.971Z,99012.22
2023-03-30T20:05:06.697Z,99013.97
2023-03-30T20:07:33.067Z,98995.59
2023-03-30T20:09:59.392Z,99000.66
2023-03-30T20:12:25.696Z,99003.19
2023-03-30T20:14:52.103Z,98990.84
2023-03-30T20:17:21.698Z,98991.44
2023-03-30T20:19:48.074Z,98996.06
2023-03-30T20:22:14.389Z,98986.25
2023-03-30T20:24:40.755Z,98980.91
2023-03-30T20:27:07.155Z,98979.22
2023-03-30T20:29:33.476Z,98974.94
2023-03-30T20:31:59.865Z,98979.31
2023-03-30T20:34:26.997Z,98974.09
2023-03-30T20:36:53.323Z,98962.66
2023-03-30T20:39:22.096Z,98970.88
2023-03-30T20:41:53.804Z,98974.47
2023-03-30T20:44:29.742Z,98976.06
2023-03-30T20:46:58.039Z,98969.91
2023-03-30T20:49:25.576Z,98973.78
2023-03-30T20:51:52.977Z,98968.94
2023-03-30T20:54:19.806Z,98954.09
2023-03-30T20:56:46.172Z,98965.97
2023-03-30T20:59:12.566Z,98950.88
2023-03-30T21:01:40.660Z,98954.56
2023-03-30T21:04:08.139Z,98948.97
2023-03-30T21:06:34.803Z,98952.94
2023-03-30T21:09:04.676Z,98953.06
2023-03-30T21:11:34.485Z,98950.06
2023-03-30T21:14:01.946Z,98945.00
2023-03-30T21:16:28.862Z,98948.66
2023-03-30T21:18:55.299Z,98945.63
2023-03-30T21:21:21.695Z,98940.69
2023-03-30T21:23:48.566Z,98943.59
2023-03-30T21:26:15.713Z,98933.81
2023-03-30T21:28:42.015Z,98943.72
2023-03-30T21:31:11.177Z,98946.06
2023-03-30T21:33:37.739Z,98940.63
2023-03-30T21:36:05.213Z,98942.16
2023-03-30T21:38:32.233Z,98929.19
2023-03-30T21:41:07.564Z,98930.38
2023-03-30T21:43:36.305Z,98928.72
2023-03-30T21:46:14.058Z,98924.34
2023-03-30T21:48:41.850Z,98910.25
2023-03-30T21:51:14.168Z,98901.75
2023-03-30T21:53:42.310Z,98899.56
2023-03-30T21:56:09.516Z,98895.63
2023-03-30T21:58:35.928Z,98901.47
2023-03-30T22:01:11.751Z,98891.22
2023-03-30T22:03:41.124Z,98879.47
2023-03-30T22:06:09.693Z,98882.59
2023-03-30T22:08:36.520Z,98874.19
2023-03-30T22:11:06.680Z,98874.78
2023-03-30T22:13:33.385Z,98869.34
2023-03-30T22:16:06.491Z,98866.31
2023-03-30T22:18:34.181Z,98863.44
2023-03-30T22:21:03.055Z,98876.31
2023-03-30T22:23:30.353Z,98881.00
2023-03-30T22:25:57.432Z,98872.28
2023-03-30T22:28:24.770Z,98876.91
2023-03-30T22:30:51.214Z,98880.31
2023-03-30T22:33:17.936Z,98882.97
2023-03-30T22:35:46.593Z,98880.03
2023-03-30T22:38:13.447Z,98875.72
2023-03-30T22:40:41.803Z,98877.38
2023-03-30T22:43:09.182Z,98872.13
2023-03-30T22:45:35.860Z,98866.59
2023-03-30T22:48:02.501Z,98857.66
2023-03-30T22:50:29.646Z,98849.78
2023-03-30T22:52:57.135Z,98848.50
2023-03-30T22:55:24.196Z,98846.53
2023-03-30T22:57:54.418Z,98851.16
2023-03-30T23:00:21.809Z,98834.34
2023-03-30T23:02:51.476Z,98840.56
2023-03-30T23:05:20.947Z,98841.84
2023-03-30T23:07:49.004Z,98838.22
2023-03-30T23:10:19.043Z,98835.44
2023-03-30T23:12:45.993Z,98839.88
2023-03-30T23:15:13.530Z,98828.59
2023-03-30T23:17:40.364Z,98823.75
2023-03-30T23:20:10.348Z,98825.16
2023-03-30T23:22:38.068Z,98816.41
2023-03-30T23:25:05.929Z,98825.94
2023-03-30T23:27:32.732Z,98821.19
2023-03-30T23:29:59.094Z,98832.78
2023-03-30T23:32:25.638Z,98820.34
2023-03-30T23:34:52.029Z,98829.28
2023-03-30T23:37:18.410Z,98830.34
2023-03-30T23:39:44.888Z,98814.66
2023-03-30T23:42:11.254Z,98810.72
2023-03-30T23:44:37.575Z,98807.63
2023-03-30T23:47:03.942Z,98798.75
2023-03-30T23:49:31.147Z,98800.41
2023-03-30T23:51:57.561Z,98785.13
2023-03-30T23:54:23.860Z,98788.25
2023-03-30T23:56:57.136Z,98792.63
2023-03-30T23:59:24.583Z,98787.94
